Time;durP1;ratioP1;P1;durP2;ratioP2;P2;SDS_P1;SDS_P2;PMS_P1;PMS_P2;Temp;Humidity;BMP_temperature;BMP_pressure;BME280_temperature;BME280_humidity;BME280_pressure;Samples;Min_cycle;Max_cycle;Signal;HPM_P1;HPM_P2
2023/01/14 01:05:16;;;;;;;25.10;7.10;;;;;;;-4.01;100.00;101542.52;105698;1291;600368;-80
2023/01/14 01:08:04;;;;;;;24.20;9.30;;;;;;;-3.79;100.00;101541.31;108351;1268;63145;-80
2023/01/14 01:10:53;;;;;;;38.50;13.20;;;;;;;-3.69;100.00;101540.98;108337;1267;61335;-80
2023/01/14 01:13:40;;;;;;;46.30;12.80;;;;;;;-3.58;100.00;101532.87;108277;1267;74753;-80
2023/01/14 01:16:27;;;;;;;43.80;12.40;;;;;;;-3.49;100.00;101532.15;108323;1268;71105;-81
2023/01/14 01:19:15;;;;;;;27.00;8.70;;;;;;;-3.40;100.00;101530.02;108281;1264;181340;-80
2023/01/14 01:22:04;;;;;;;23.40;8.20;;;;;;;-3.30;100.00;101535.13;108434;1265;62975;-81
2023/01/14 01:24:52;;;;;;;23.40;8.40;;;;;;;-3.21;100.00;101532.00;108443;1265;61179;-81
2023/01/14 01:27:39;;;;;;;27.50;7.20;;;;;;;-3.19;100.00;101529.54;108555;1264;74719;-81
2023/01/14 01:30:27;;;;;;;18.70;7.10;;;;;;;-3.16;100.00;101522.23;108517;1265;69671;-80
2023/01/14 01:33:16;;;;;;;22.90;7.10;;;;;;;-3.10;100.00;101523.71;108339;1264;74788;-80
2023/01/14 01:36:06;;;;;;;24.10;7.00;;;;;;;-3.05;100.00;101518.35;108504;1266;63296;-81
2023/01/14 01:38:54;;;;;;;21.80;7.40;;;;;;;-2.99;100.00;101515.45;108501;1264;61162;-81
2023/01/14 01:41:41;;;;;;;21.80;7.20;;;;;;;-2.95;100.00;101520.02;108502;1264;75259;-81
2023/01/14 01:44:29;;;;;;;14.20;6.30;;;;;;;-2.93;100.00;101521.54;108467;1264;69786;-81
2023/01/14 01:47:19;;;;;;;28.00;7.80;;;;;;;-2.89;100.00;101525.48;108595;1266;75379;-81
2023/01/14 01:50:07;;;;;;;16.50;6.40;;;;;;;-2.86;100.00;101522.63;108340;1266;60752;-79
2023/01/14 01:52:54;;;;;;;18.40;6.50;;;;;;;-2.86;100.00;101516.55;108511;1264;61139;-81
2023/01/14 01:55:43;;;;;;;23.60;7.40;;;;;;;-2.84;100.00;101517.91;108457;1265;74804;-81
2023/01/14 01:58:31;;;;;;;22.40;6.50;;;;;;;-2.81;100.00;101517.45;108788;1257;70941;-81
2023/01/14 02:01:19;;;;;;;18.80;6.80;;;;;;;-2.78;100.00;101509.80;108866;1256;75409;-81
2023/01/14 02:04:07;;;;;;;15.60;5.80;;;;;;;-2.76;100.00;101506.75;108884;1259;60481;-81
2023/01/14 02:06:55;;;;;;;15.20;5.90;;;;;;;-2.75;100.00;101506.09;108897;1256;62765;-80
2023/01/14 02:09:43;;;;;;;22.60;6.30;;;;;;;-2.73;100.00;101503.35;108957;1256;75169;-81
2023/01/14 02:12:43;;;;;;;14.20;6.00;;;;;;;-2.71;100.00;101502.45;109028;1254;69002;-81
2023/01/14 02:15:42;;;;;;;19.40;6.40;;;;;;;-2.71;100.00;101509.38;109085;1256;74628;-81
2023/01/14 02:18:40;;;;;;;13.70;4.90;;;;;;;-2.70;100.00;101506.13;109119;1253;61889;-81
2023/01/14 02:21:29;;;;;;;13.40;5.00;;;;;;;-2.71;100.00;101505.41;109026;1253;61059;-81
2023/01/14 02:24:55;;;;;;;14.00;5.70;;;;;;;-2.72;100.00;101501.52;109251;1253;76398;-81
2023/01/14 02:27:48;;;;;;;10.30;4.80;;;;;;;-2.76;100.00;101500.70;109145;1253;69730;-82
2023/01/14 02:30:47;;;;;;;10.00;4.60;;;;;;;-2.78;100.00;101503.00;109048;1254;74885;-81
2023/01/14 02:33:56;;;;;;;11.40;4.40;;;;;;;-2.76;100.00;101505.72;108946;1253;62194;-81
2023/01/14 02:36:49;;;;;;;11.30;4.30;;;;;;;-2.76;100.00;101504.23;109020;1253;62433;-81
2023/01/14 02:39:40;;;;;;;11.20;4.30;;;;;;;-2.79;100.00;101507.73;109090;1253;75968;-81
2023/01/14 02:45:51;;;;;;;14.30;5.20;;;;;;;-2.77;100.00;101506.66;109124;1256;73735;-81
2023/01/14 02:48:39;;;;;;;10.50;4.60;;;;;;;-2.74;100.00;101505.45;109152;1253;60904;-81
2023/01/14 02:51:27;;;;;;;15.00;6.00;;;;;;;-2.75;100.00;101503.73;109087;1256;62328;-79
2023/01/14 02:54:16;;;;;;;11.40;4.30;;;;;;;-2.75;100.00;101509.26;109517;1254;74132;-79
2023/01/14 02:57:13;;;;;;;12.50;4.20;;;;;;;-2.75;100.00;101506.59;109268;1253;68850;-81
2023/01/14 03:00:33;;;;;;;14.60;5.10;;;;;;;-2.73;100.00;101506.60;109111;1253;75094;-82
2023/01/14 03:03:39;;;;;;;17.00;5.40;;;;;;;-2.72;100.00;101511.25;109013;1253;62593;-81
2023/01/14 03:06:33;;;;;;;17.10;4.40;;;;;;;-2.70;100.00;101511.58;108977;1253;62390;-81
2023/01/14 03:09:48;;;;;;;13.00;4.50;;;;;;;-2.67;100.00;101512.02;109133;1253;75334;-81
2023/01/14 03:12:35;;;;;;;12.80;5.20;;;;;;;-2.66;100.00;101510.11;109031;1253;70061;-81
2023/01/14 03:15:34;;;;;;;12.40;4.60;;;;;;;-2.63;100.00;101511.21;109108;1253;74890;-82
2023/01/14 03:18:44;;;;;;;11.90;4.80;;;;;;;-2.65;100.00;101518.04;108969;1253;63501;-81
2023/01/14 03:21:36;;;;;;;14.60;5.40;;;;;;;-2.66;100.00;101514.76;109068;1253;62648;-81
2023/01/14 03:24:43;;;;;;;11.70;5.20;;;;;;;-2.67;100.00;101512.69;109134;1253;73935;-81
2023/01/14 03:27:34;;;;;;;13.30;4.50;;;;;;;-2.66;100.00;101512.98;109010;1253;69697;-80
2023/01/14 03:30:26;;;;;;;11.60;4.70;;;;;;;-2.65;100.00;101517.23;108978;1256;74878;-81
2023/01/14 03:33:27;;;;;;;19.80;5.00;;;;;;;-2.60;100.00;101515.46;109136;1254;61351;-82
2023/01/14 03:36:14;;;;;;;12.00;4.70;;;;;;;-2.61;100.00;101516.64;109055;1253;61505;-82
2023/01/14 03:39:04;;;;;;;13.80;4.90;;;;;;;-2.61;100.00;101514.36;109010;1253;75320;-81
2023/01/14 03:45:00;;;;;;;14.50;5.30;;;;;;;-2.56;100.00;101519.41;109112;1253;74747;-81
2023/01/14 03:47:48;;;;;;;17.50;5.40;;;;;;;-2.55;100.00;101516.94;109071;1253;60337;-81
2023/01/14 03:51:01;;;;;;;13.90;5.10;;;;;;;-2.53;100.00;101516.20;109144;1253;59966;-81
2023/01/14 03:54:10;;;;;;;10.80;5.40;;;;;;;-2.50;100.00;101519.27;109073;1253;74154;-81
2023/01/14 03:57:21;;;;;;;14.50;4.70;;;;;;;-2.47;100.00;101524.98;109063;1253;69284;-81
2023/01/14 04:00:44;;;;;;;13.70;5.10;;;;;;;-2.49;100.00;101528.07;109070;1253;75007;-82
2023/01/14 04:03:31;;;;;;;8.80;3.50;;;;;;;-2.50;100.00;101522.42;109103;1254;61058;-81
2023/01/14 07:07:32;;;;;;;25.70;9.30;;;;;;;-3.19;100.00;101542.10;105760;1289;601214;-81
2023/01/14 07:10:20;;;;;;;33.00;10.60;;;;;;;-2.74;100.00;101544.85;108450;1266;62831;-82
2023/01/14 07:13:07;;;;;;;43.00;12.70;;;;;;;-2.55;100.00;101543.16;108610;1262;62607;-81
2023/01/14 07:15:57;;;;;;;54.10;14.90;;;;;;;-2.43;100.00;101547.05;108629;1263;73494;-81
2023/01/14 07:18:45;;;;;;;38.50;14.00;;;;;;;-2.44;100.00;101546.21;108603;1262;70507;-81
2023/01/14 07:21:32;;;;;;;31.40;10.60;;;;;;;-2.27;100.00;101548.98;108535;1261;215548;-81
2023/01/14 07:24:20;;;;;;;24.30;8.70;;;;;;;-2.22;100.00;101553.27;108740;1259;61037;-82
2023/01/14 07:27:07;;;;;;;22.30;8.60;;;;;;;-2.20;100.00;101549.89;108709;1259;62494;-81
2023/01/14 07:29:55;;;;;;;15.10;6.90;;;;;;;-2.11;100.00;101549.83;108779;1259;73060;-82
2023/01/14 07:32:43;;;;;;;15.30;6.60;;;;;;;-2.07;100.00;101549.71;108752;1260;70963;-81
2023/01/14 07:35:31;;;;;;;22.00;7.50;;;;;;;-2.01;100.00;101547.42;108718;1259;73818;-82
2023/01/14 07:38:19;;;;;;;13.80;6.90;;;;;;;-1.89;100.00;101553.30;109292;1251;61271;-82
2023/01/14 07:41:11;;;;;;;18.10;6.80;;;;;;;-1.82;100.00;101551.67;109316;1251;61224;-83
2023/01/14 07:44:00;;;;;;;16.80;6.70;;;;;;;-1.79;100.00;101555.71;109180;1251;72941;-82
2023/01/14 07:46:48;;;;;;;20.20;7.50;;;;;;;-1.78;100.00;101559.16;109292;1252;69811;-83
2023/01/14 07:49:39;;;;;;;18.20;7.20;;;;;;;-1.76;100.00;101561.93;109071;1254;75005;-83
2023/01/14 07:52:26;;;;;;;22.80;7.20;;;;;;;-1.80;100.00;101565.93;109270;1254;61033;-83
2023/01/14 07:55:14;;;;;;;17.60;6.90;;;;;;;-1.81;100.00;101570.64;109287;1251;62582;-81
2023/01/14 07:58:01;;;;;;;14.80;6.40;;;;;;;-1.85;100.00;101573.81;109270;1251;74807;-82
2023/01/14 08:00:49;;;;;;;14.30;7.20;;;;;;;-1.92;100.00;101573.43;109198;1251;69372;-82
2023/01/14 08:03:37;;;;;;;15.20;7.10;;;;;;;-1.90;100.00;101577.70;109350;1251;75344;-83
2023/01/14 08:06:24;;;;;;;14.90;7.10;;;;;;;-1.86;100.00;101578.48;109253;1251;60538;-83
2023/01/14 08:09:12;;;;;;;16.80;7.80;;;;;;;-1.79;100.00;101588.91;109210;1253;60197;-82
2023/01/14 08:11:59;;;;;;;16.70;7.10;;;;;;;-1.75;100.00;101588.77;109290;1251;74192;-82
2023/01/14 08:14:47;;;;;;;22.40;7.20;;;;;;;-1.69;100.00;101593.08;109310;1253;70506;-82
2023/01/14 08:17:34;;;;;;;20.80;7.90;;;;;;;-1.67;100.00;101589.23;109359;1251;75044;-82
2023/01/14 08:20:22;;;;;;;19.60;8.80;;;;;;;-1.64;100.00;101589.91;109370;1251;60417;-81
2023/01/14 08:23:10;;;;;;;14.50;7.20;;;;;;;-1.60;100.00;101594.55;109312;1253;62414;-82
2023/01/14 08:26:05;;;;;;;18.60;7.20;;;;;;;-1.56;100.00;101593.65;109292;1251;72999;-84
2023/01/14 08:28:53;;;;;;;15.80;6.60;;;;;;;-1.55;100.00;101594.16;109302;1251;70455;-82
2023/01/14 08:31:40;;;;;;;15.10;7.10;;;;;;;-1.53;100.00;101590.36;109218;1251;73625;-82
2023/01/14 08:34:28;;;;;;;14.00;7.20;;;;;;;-1.51;100.00;101585.29;109286;1251;62118;-82
2023/01/14 08:37:16;;;;;;;19.90;7.50;;;;;;;-1.55;100.00;101588.10;109336;1251;61348;-83
2023/01/14 08:40:04;;;;;;;22.30;7.90;;;;;;;-1.59;100.00;101586.66;109266;1251;75340;-81
2023/01/14 08:42:51;;;;;;;18.20;7.00;;;;;;;-1.58;100.00;101584.95;109384;1253;70906;-82
2023/01/14 08:45:39;;;;;;;16.30;7.60;;;;;;;-1.57;100.00;101582.06;109225;1253;74634;-81
2023/01/14 08:48:27;;;;;;;15.70;6.90;;;;;;;-1.54;100.00;101582.06;109167;1253;63272;-80
2023/01/14 08:51:17;;;;;;;17.60;6.70;;;;;;;-1.48;100.00;101582.07;109137;1251;60899;-80
2023/01/14 08:54:05;;;;;;;15.90;7.00;;;;;;;-1.48;100.00;101584.95;109105;1252;73694;-81
2023/01/14 08:56:55;;;;;;;14.40;7.10;;;;;;;-1.52;100.00;101586.61;109103;1253;70882;-84
2023/01/14 08:59:43;;;;;;;16.50;6.50;;;;;;;-1.47;100.00;101580.21;109275;1253;74845;-83
2023/01/14 09:02:31;;;;;;;17.60;7.90;;;;;;;-1.40;100.00;101585.05;109338;1253;62134;-82
2023/01/14 09:05:19;;;;;;;17.20;7.80;;;;;;;-1.37;100.00;101581.92;109302;1251;63095;-79
2023/01/14 09:17:45;;;;;;;17.10;7.40;;;;;;;-1.20;100.00;101564.27;109140;1252;61692;-80
2023/01/14 09:20:38;;;;;;;18.10;7.60;;;;;;;-1.22;100.00;101555.55;109245;1254;63678;-80
2023/01/14 09:23:26;;;;;;;14.60;7.00;;;;;;;-1.23;100.00;101555.65;109186;1253;74816;-81
2023/01/14 09:26:13;;;;;;;13.70;6.40;;;;;;;-1.22;100.00;101554.24;109239;1254;70634;-80
2023/01/14 09:29:01;;;;;;;14.30;6.40;;;;;;;-1.21;100.00;101558.27;109238;1253;75228;-80
2023/01/14 09:31:48;;;;;;;16.40;6.80;;;;;;;-1.19;100.00;101562.58;109175;1253;60568;-81
2023/01/14 09:34:52;;;;;;;15.90;6.90;;;;;;;-1.18;100.00;101561.48;109260;1251;61599;-81
2023/01/14 09:37:39;;;;;;;17.80;7.00;;;;;;;-1.19;100.00;101556.58;109311;1251;74289;-83
2023/01/14 09:40:27;;;;;;;14.10;6.40;;;;;;;-1.15;100.00;101558.48;109378;1251;71599;-84
2023/01/14 09:43:15;;;;;;;14.00;6.30;;;;;;;-1.15;100.00;101556.23;109273;1253;74784;-83
2023/01/14 09:46:03;;;;;;;13.50;6.20;;;;;;;-1.17;100.00;101554.59;109055;1253;61305;-83
2023/01/14 09:48:52;;;;;;;15.50;5.80;;;;;;;-1.17;100.00;101556.16;109220;1252;61278;-82
2023/01/14 09:52:16;;;;;;;17.40;7.90;;;;;;;-1.12;100.00;101555.85;109233;1253;72805;-82
2023/01/14 09:55:12;;;;;;;12.10;5.50;;;;;;;-1.03;100.00;101557.44;109307;1253;69961;-82
2023/01/14 09:58:04;;;;;;;17.90;6.60;;;;;;;-1.00;100.00;101558.08;109191;1252;74817;-83
2023/01/14 13:09:46;;;;;;;24.20;9.50;;;;;;;-2.56;100.00;101550.38;105753;1290;600401;-80
2023/01/14 13:12:37;;;;;;;32.60;11.80;;;;;;;-2.43;100.00;101544.57;108407;1266;64112;-77
2023/01/14 13:15:35;;;;;;;34.40;14.60;;;;;;;-2.26;100.00;101537.98;108503;1266;62401;-81
2023/01/14 13:18:35;;;;;;;34.60;14.70;;;;;;;-2.13;100.00;101540.00;108869;1259;73803;-80
2023/01/14 13:21:56;;;;;;;43.80;19.80;;;;;;;-2.02;100.00;101541.46;108864;1259;69818;-77
2023/01/14 13:24:47;;;;;;;24.10;10.80;;;;;;;-1.93;100.00;101542.08;108812;1257;73520;-80
2023/01/14 13:27:36;;;;;;;46.60;21.70;;;;;;;-1.86;100.00;101545.09;108921;1257;61018;-80
2023/01/14 13:30:23;;;;;;;26.20;12.60;;;;;;;-1.73;100.00;101545.05;108927;1256;62303;-81
2023/01/14 13:33:16;;;;;;;22.40;10.10;;;;;;;-1.62;100.00;101545.95;108987;1256;73360;-79
2023/01/14 13:36:10;;;;;;;;;;;;;;;-1.58;100.00;101548.69;109010;1256;70899;-80
2023/01/14 13:38:58;;;;;;;21.60;8.90;;;;;;;-1.54;100.00;101549.85;108971;1256;73776;-77
2023/01/14 13:41:47;;;;;;;24.90;10.50;;;;;;;-1.52;100.00;101545.60;108976;1256;60579;-80
2023/01/14 13:44:36;;;;;;;23.60;10.70;;;;;;;-1.41;100.00;101544.41;108930;1256;61304;-77
2023/01/14 13:47:28;;;;;;;22.80;9.10;;;;;;;-1.34;100.00;101542.41;108928;1260;74963;-81
2023/01/14 13:50:24;;;;;;;24.50;8.70;;;;;;;-1.29;100.00;101546.48;108921;1256;70205;-77
2023/01/14 13:53:17;;;;;;;21.40;10.00;;;;;;;-1.32;100.00;101551.08;108934;1256;75147;-80
2023/01/14 13:56:05;;;;;;;20.40;9.00;;;;;;;-1.24;100.00;101552.55;108968;1256;60277;-77
2023/01/14 13:58:55;;;;;;;23.30;9.80;;;;;;;-1.23;100.00;101552.48;108969;1256;62506;-77
2023/01/14 14:01:46;;;;;;;24.70;11.70;;;;;;;-1.22;100.00;101556.86;108925;1256;75128;-81
2023/01/14 14:04:55;;;;;;;21.60;10.20;;;;;;;-1.20;100.00;101558.60;108980;1256;70880;-80
2023/01/14 14:07:45;;;;;;;20.40;10.50;;;;;;;-1.21;100.00;101559.26;108979;1256;73656;-77
2023/01/14 14:10:55;;;;;;;27.30;13.20;;;;;;;-1.24;100.00;101561.84;108978;1256;60582;-77
2023/01/14 14:16:54;;;;;;;29.40;10.60;;;;;;;-1.19;100.00;101556.82;108919;1258;75168;-77
2023/01/14 14:19:44;;;;;;;19.10;7.50;;;;;;;-1.16;100.00;101557.34;108870;1257;71058;-77
2023/01/14 14:22:54;;;;;;;20.20;9.50;;;;;;;-1.08;100.00;101558.95;108904;1257;75271;-77
2023/01/14 14:25:43;;;;;;;22.60;10.20;;;;;;;-0.98;100.00;101554.80;108845;1257;61580;-77
2023/01/14 14:28:31;;;;;;;19.40;9.80;;;;;;;-0.99;100.00;101556.15;108931;1257;62147;-77
2023/01/14 14:31:23;;;;;;;26.00;11.00;;;;;;;-1.03;100.00;101560.89;108924;1257;76123;-80
2023/01/14 14:34:12;;;;;;;22.20;11.70;;;;;;;-0.97;100.00;101569.02;108874;1256;70998;-80
2023/01/14 14:37:02;;;;;;;23.60;10.60;;;;;;;-0.94;100.00;101574.36;108970;1256;74916;-77
2023/01/14 14:39:54;;;;;;;22.90;10.80;;;;;;;-0.95;100.00;101569.44;108996;1256;61867;-77
2023/01/14 14:42:41;;;;;;;25.90;9.50;;;;;;;-0.98;100.00;101571.48;108934;1256;61265;-81
2023/01/14 14:45:33;;;;;;;25.90;11.00;;;;;;;-1.05;100.00;101571.44;108903;1257;74262;-77
2023/01/14 14:48:21;;;;;;;27.60;10.20;;;;;;;-1.18;100.00;101570.70;108977;1256;71082;-80
2023/01/14 14:51:25;;;;;;;20.50;9.20;;;;;;;-1.12;100.00;101574.83;108932;1256;74832;-81
2023/01/14 14:54:32;;;;;;;24.10;9.80;;;;;;;-1.13;100.00;101575.23;108849;1257;61839;-82
2023/01/14 14:57:23;;;;;;;21.80;10.50;;;;;;;-1.13;100.00;101573.29;108942;1256;62400;-81
2023/01/14 15:00:16;;;;;;;21.80;9.10;;;;;;;-1.14;100.00;101572.83;109023;1256;74717;-82
2023/01/14 15:03:05;;;;;;;20.20;8.50;;;;;;;-1.11;100.00;101568.98;108842;1257;71408;-81
2023/01/14 15:05:53;;;;;;;24.80;12.60;;;;;;;-1.11;100.00;101569.25;108886;1257;75679;-82
2023/01/14 15:09:02;;;;;;;22.10;11.70;;;;;;;-1.10;100.00;101570.96;108905;1257;60355;-77
2023/01/14 15:11:49;;;;;;;28.50;11.10;;;;;;;-1.07;100.00;101573.86;108886;1262;61550;-77
2023/01/14 15:14:36;;;;;;;26.70;11.90;;;;;;;-1.07;100.00;101569.98;108922;1257;75429;-77
2023/01/14 15:17:24;;;;;;;26.90;13.00;;;;;;;-1.01;100.00;101568.58;108965;1258;70670;-77
2023/01/14 15:20:13;;;;;;;28.30;12.20;;;;;;;-1.00;100.00;101574.42;108904;1256;74713;-77
2023/01/14 15:23:00;;;;;;;27.10;11.50;;;;;;;-1.02;100.00;101571.38;108905;1256;60731;-77
2023/01/14 15:25:47;;;;;;;30.90;12.30;;;;;;;-0.99;100.00;101571.17;108903;1257;61319;-77
2023/01/14 15:28:35;;;;;;;24.80;12.40;;;;;;;-0.98;100.00;101574.48;108856;1257;74015;-77
2023/01/14 15:31:25;;;;;;;29.10;12.60;;;;;;;-0.97;100.00;101576.86;108925;1257;70937;-77
2023/01/14 15:34:16;;;;;;;29.00;13.10;;;;;;;-1.00;100.00;101577.22;108897;1256;74216;-82
2023/01/14 15:37:19;;;;;;;27.50;11.30;;;;;;;-0.98;100.00;101574.99;108847;1256;60497;-81
2023/01/14 15:40:12;;;;;;;31.30;12.20;;;;;;;-1.01;100.00;101574.09;108911;1256;62400;-82
2023/01/14 15:43:00;;;;;;;27.90;11.10;;;;;;;-1.04;100.00;101578.00;108824;1257;75170;-82
2023/01/14 15:45:47;;;;;;;43.00;21.70;;;;;;;-0.94;100.00;101577.14;108911;1257;70913;-82
2023/01/14 15:48:40;;;;;;;34.10;16.20;;;;;;;-0.86;100.00;101573.59;108905;1257;74649;-81
2023/01/14 15:51:42;;;;;;;24.70;13.90;;;;;;;-0.78;100.00;101572.40;108910;1256;61696;-81
2023/01/14 15:54:34;;;;;;;34.80;15.30;;;;;;;-0.80;100.00;101572.20;108911;1255;61260;-82
2023/01/14 15:57:25;;;;;;;46.20;24.40;;;;;;;-0.82;100.00;101575.64;108942;1256;74916;-82
2023/01/14 19:07:48;;;;;;;28.20;9.90;;;;;;;-4.43;100.00;101597.40;105791;1291;600201;-81
2023/01/14 19:10:36;;;;;;;28.10;11.30;;;;;;;-4.34;100.00;101599.15;108438;1265;63944;-81
2023/01/14 19:13:23;;;;;;;38.30;14.10;;;;;;;-4.19;100.00;101600.59;108447;1265;62266;-81
2023/01/14 19:16:11;;;;;;;49.70;16.80;;;;;;;-4.06;100.00;101595.00;108432;1266;73341;-80
2023/01/14 19:18:59;;;;;;;43.30;17.10;;;;;;;-3.97;100.00;101594.54;108481;1265;71361;-81
2023/01/14 19:21:46;;;;;;;36.00;13.60;;;;;;;-3.87;100.00;101591.61;108386;1264;163786;-80
2023/01/14 19:24:34;;;;;;;32.30;12.70;;;;;;;-3.78;100.00;101594.77;108570;1264;62063;-81
2023/01/14 19:27:22;;;;;;;34.40;13.20;;;;;;;-3.69;100.00;101595.66;108635;1262;61064;-81
2023/01/14 19:30:10;;;;;;;30.60;12.50;;;;;;;-3.60;100.00;101596.88;108672;1262;74427;-81
2023/01/14 19:32:57;;;;;;;32.00;12.10;;;;;;;-3.51;100.00;101599.14;108531;1264;71044;-80
2023/01/14 19:35:45;;;;;;;29.20;12.80;;;;;;;-3.42;100.00;101595.24;108605;1262;74116;-81
2023/01/14 19:38:32;;;;;;;26.90;10.30;;;;;;;-3.34;100.00;101595.58;108636;1263;62295;-81
2023/01/14 19:41:20;;;;;;;29.00;11.20;;;;;;;-3.27;100.00;101588.96;108774;1260;61153;-81
2023/01/14 19:44:07;;;;;;;27.80;10.70;;;;;;;-3.21;100.00;101588.33;108869;1259;75076;-81
2023/01/14 19:46:55;;;;;;;21.90;10.60;;;;;;;-3.16;100.00;101589.74;108721;1259;70906;-81
2023/01/14 19:49:43;;;;;;;22.50;10.00;;;;;;;-3.09;100.00;101585.70;108837;1259;74813;-81
2023/01/14 19:52:30;;;;;;;30.80;12.40;;;;;;;-2.97;100.00;101589.11;108774;1258;63327;-81
2023/01/14 19:55:17;;;;;;;36.90;13.20;;;;;;;-2.90;100.00;101590.77;108800;1260;61374;-80
2023/01/14 19:58:05;;;;;;;36.70;14.30;;;;;;;-2.83;100.00;101586.30;108738;1260;75033;-81
2023/01/14 20:00:53;;;;;;;33.70;12.60;;;;;;;-2.78;100.00;101586.84;108837;1260;69938;-81
2023/01/14 20:03:41;;;;;;;34.80;11.90;;;;;;;-2.72;100.00;101586.73;108805;1260;73522;-81
2023/01/14 20:06:29;;;;;;;29.20;10.70;;;;;;;-2.66;100.00;101587.53;108840;1260;64217;-81
2023/01/14 20:09:17;;;;;;;24.30;10.80;;;;;;;-2.62;100.00;101590.22;108795;1260;60975;-80
2023/01/14 20:12:09;;;;;;;23.30;10.40;;;;;;;-2.61;100.00;101587.98;108798;1260;75806;-81
2023/01/14 20:14:57;;;;;;;;;;;;;;;-2.56;100.00;101586.45;108845;1259;68833;-81
2023/01/14 20:17:44;;;;;;;25.00;11.20;;;;;;;-2.56;100.00;101587.92;108797;1260;74797;-80
2023/01/14 20:20:32;;;;;;;26.70;12.60;;;;;;;-2.56;100.00;101587.16;108812;1259;62889;-81
2023/01/14 20:23:19;;;;;;;31.10;12.10;;;;;;;-2.54;100.00;101586.92;108785;1258;61780;-81
2023/01/14 20:26:14;;;;;;;32.10;11.10;;;;;;;-2.53;100.00;101589.49;108805;1261;75023;-80
2023/01/14 20:29:01;;;;;;;31.80;12.60;;;;;;;-2.49;100.00;101586.20;108729;1259;69995;-81
2023/01/14 20:31:49;;;;;;;27.50;11.90;;;;;;;-2.40;100.00;101584.23;108803;1260;74942;-81
2023/01/14 20:34:37;;;;;;;27.70;11.40;;;;;;;-2.30;100.00;101582.20;108770;1260;60589;-80
2023/01/14 20:37:24;;;;;;;27.60;12.60;;;;;;;-2.20;100.00;101585.54;108815;1260;62510;-82
2023/01/14 20:40:12;;;;;;;28.90;11.10;;;;;;;-2.08;100.00;101580.91;108790;1262;75501;-81
2023/01/14 20:42:59;;;;;;;25.20;12.10;;;;;;;-2.05;100.00;101580.05;108803;1260;70999;-81
2023/01/14 20:45:47;;;;;;;29.90;13.00;;;;;;;-2.04;100.00;101585.30;108774;1259;73499;-81
2023/01/14 20:48:35;;;;;;;28.00;12.40;;;;;;;-2.05;100.00;101592.55;108804;1260;60587;-81
2023/01/14 20:51:23;;;;;;;28.30;12.10;;;;;;;-2.04;100.00;101599.55;108825;1259;62318;-81
2023/01/14 20:54:11;;;;;;;24.90;10.40;;;;;;;-2.02;100.00;101603.38;108848;1259;73244;-81
2023/01/14 20:56:59;;;;;;;31.50;11.50;;;;;;;-2.01;100.00;101607.25;108701;1260;71081;-80
2023/01/14 20:59:46;;;;;;;26.80;11.90;;;;;;;-1.99;100.00;101610.27;108758;1260;74489;-81
2023/01/14 21:02:34;;;;;;;29.20;11.70;;;;;;;-1.98;100.00;101608.35;108809;1260;60393;-82
2023/01/14 21:05:26;;;;;;;30.20;12.30;;;;;;;-1.96;100.00;101605.08;108808;1259;61308;-81
2023/01/14 21:08:13;;;;;;;29.30;12.50;;;;;;;-1.95;100.00;101605.88;108799;1261;74080;-83
2023/01/14 21:11:08;;;;;;;26.20;11.20;;;;;;;-1.91;100.00;101603.69;108841;1260;68834;-81
2023/01/14 21:23:18;;;;;;;28.50;11.90;;;;;;;-1.89;100.00;101616.86;108826;1260;74778;-81
2023/01/14 21:26:05;;;;;;;31.10;11.70;;;;;;;-1.86;100.00;101620.00;108780;1260;70905;-81
2023/01/14 21:28:52;;;;;;;30.20;13.80;;;;;;;-1.84;100.00;101618.06;108795;1260;74807;-81
2023/01/14 21:31:40;;;;;;;32.30;13.40;;;;;;;-1.85;100.00;101616.02;108815;1260;60519;-80
2023/01/14 21:34:28;;;;;;;31.40;12.20;;;;;;;-1.86;100.00;101612.57;108977;1256;61813;-82
2023/01/14 21:37:15;;;;;;;29.60;12.10;;;;;;;-1.84;100.00;101610.77;109055;1254;72955;-81
2023/01/14 21:40:04;;;;;;;27.40;12.10;;;;;;;-1.83;100.00;101611.13;108984;1254;68739;-82
2023/01/14 21:46:01;;;;;;;34.10;13.30;;;;;;;-1.80;100.00;101618.86;108981;1256;61707;-77
2023/01/14 21:48:49;;;;;;;32.00;13.30;;;;;;;-1.83;100.00;101616.89;109017;1254;60564;-77
2023/01/14 21:51:36;;;;;;;24.50;12.00;;;;;;;-1.85;100.00;101611.87;109074;1254;74475;-77
2023/01/14 21:54:24;;;;;;;28.90;11.40;;;;;;;-1.80;100.00;101608.11;109084;1254;70948;-77
2023/01/14 21:57:11;;;;;;;21.80;10.90;;;;;;;-1.76;100.00;101605.22;108933;1256;74927;-82
2023/01/14 21:59:59;;;;;;;29.90;11.10;;;;;;;-1.73;100.00;101608.99;109037;1254;61679;-80
